Aviation Digital Data Service (ADDS)

Output produced by METARs form (0901 UTC 20 October 2017)
found at http://www.aviationweather.gov/adds/metars/
 
KJST 200854Z AUTO 27008KT 10SM CLR 12/08 A3021 RMK AO2 SLP227 T01170078 53005
KJST 200754Z AUTO 28010KT 10SM CLR 13/08 A3020 RMK AO2 SLP222 T01280078
KJST 200654Z AUTO 27010G18KT 10SM CLR 13/07 A3019 RMK AO2 SLP219 T01330072
KJST 200554Z AUTO 27012KT 10SM CLR 14/07 A3019 RMK AO2 SLP220 T01390067 10156 20139 51001
KJST 200454Z AUTO 26014G20KT 10SM CLR 14/07 A3019 RMK AO2 SLP219 T01440067 401890078
KJST 200354Z AUTO 25011KT 10SM CLR 14/06 A3019 RMK AO2 SLP220 T01440061
KJST 200254Z AUTO 25009KT 10SM CLR 14/06 A3019 RMK AO2 SLP221 T01440056 51003
KJST 200154Z AUTO 26011KT 10SM CLR 15/06 A3019 RMK AO2 SLP220 T01500056
KJST 200054Z AUTO 26009G19KT 10SM CLR 15/06 A3019 RMK AO2 SLP223 T01500056
KJST 192354Z AUTO 25009G18KT 10SM CLR 16/06 A3018 RMK AO2 SLP221 T01560056 10189 20150 53003
KJST 192254Z AUTO 26011KT 10SM CLR 16/05 A3017 RMK AO2 SLP219 T01560050
KJST 192154Z AUTO 25011KT 10SM CLR 17/05 A3016 RMK AO2 SLP213 T01670050
KJST 192054Z AUTO 27011KT 10SM CLR 18/05 A3018 RMK AO2 SLP217 T01780050 56007
KJST 191954Z AUTO 25010KT 10SM CLR 18/04 A3018 RMK AO2 SLP218 T01830039
KJST 191854Z AUTO 27012G19KT 10SM CLR 19/04 A3018 RMK AO2 SLP215 T01890039
KJST 191754Z AUTO 25010KT 10SM CLR 18/04 A3020 RMK AO2 SLP222 T01830044 10183 20100 58015
KJST 191654Z AUTO 26012KT 10SM CLR 17/04 A3022 RMK AO2 SLP232 T01720044
KJST 191554Z AUTO 24013G21KT 10SM CLR 17/06 A3024 RMK AO2 SLP237 T01670056
KJST 191454Z AUTO 26010G20KT 10SM CLR 15/06 A3024 RMK AO2 SLP242 T01500056 51004
KJST 191354Z AUTO 23010KT 10SM CLR 13/04 A3024 RMK AO2 SLP242 T01330044
KJST 191254Z AUTO 22008KT 10SM CLR 12/04 A3024 RMK AO2 SLP240 T01220039
KJST 191154Z AUTO 23007KT 10SM CLR 10/03 A3023 RMK AO2 SLP240 T01000033 10111 20078 50002
KJST 191054Z AUTO 24007KT 10SM CLR 08/03 A3023 RMK AO2 SLP241 T00780028
KJST 190954Z AUTO 22006KT 10SM CLR 10/03 A3023 RMK AO2 SLP235 T01000028
KJST 190854Z AUTO 19006KT 10SM CLR 09/03 A3023 RMK AO2 SLP233 T00940028 57004
KJST 190754Z AUTO 21005KT 10SM CLR 11/03 A3023 RMK AO2 SLP234 T01060028
KJST 190654Z AUTO 21006KT 10SM CLR 11/03 A3023 RMK AO2 SLP235 T01060028
KJST 190554Z AUTO 21006KT 10SM CLR 11/03 A3024 RMK AO2 SLP237 T01110028 10128 20106 56009
KJST 190454Z AUTO 22005KT 10SM CLR 12/03 A3024 RMK AO2 SLP239 T01170028 402000056
KJST 190354Z AUTO 20008KT 10SM CLR 12/03 A3026 RMK AO2 SLP245 T01170033
KJST 190254Z AUTO 21007KT 10SM CLR 12/04 A3027 RMK AO2 SLP250 T01170039 58000
KJST 190154Z AUTO 22005KT 10SM CLR 12/04 A3028 RMK AO2 SLP256 T01220039
KJST 190054Z AUTO 22004KT 10SM CLR 12/04 A3027 RMK AO2 SLP254 T01220044
KJST 182354Z AUTO 16007KT 10SM CLR 13/04 A3027 RMK AO2 SLP256 T01280039 10200 20128 50001
KJST 182254Z AUTO 15006KT 10SM CLR 14/03 A3027 RMK AO2 SLP257 T01390033
KJST 182154Z AUTO 16009KT 10SM CLR 17/03 A3026 RMK AO2 SLP250 T01670033